sensor_id;sensor_type;location;lat;lon;timestamp;P1;durP1;ratioP1;P2;durP2;ratioP2
16282;SDS011;8249;48.708;9.030;2022-08-01T00:00:30;2.33;;;2.23;;
16282;SDS011;8249;48.708;9.030;2022-08-01T00:02:57;2.33;;;2.23;;
16282;SDS011;8249;48.708;9.030;2022-08-01T00:05:24;2.60;;;2.50;;
16282;SDS011;8249;48.708;9.030;2022-08-01T00:07:52;2.63;;;2.40;;
16282;SDS011;8249;48.708;9.030;2022-08-01T00:10:19;2.40;;;2.30;;
16282;SDS011;8249;48.708;9.030;2022-08-01T00:12:47;3.37;;;2.40;;
16282;SDS011;8249;48.708;9.030;2022-08-01T00:15:14;5.87;;;2.90;;
16282;SDS011;8249;48.708;9.030;2022-08-01T00:17:43;2.67;;;2.57;;
16282;SDS011;8249;48.708;9.030;2022-08-01T00:20:11;2.60;;;2.40;;
16282;SDS011;8249;48.708;9.030;2022-08-01T00:22:39;2.80;;;2.60;;
16282;SDS011;8249;48.708;9.030;2022-08-01T00:25:07;4.23;;;2.47;;
16282;SDS011;8249;48.708;9.030;2022-08-01T00:27:34;4.00;;;2.43;;
16282;SDS011;8249;48.708;9.030;2022-08-01T00:30:02;4.40;;;2.70;;
16282;SDS011;8249;48.708;9.030;2022-08-01T00:32:29;2.70;;;2.50;;
16282;SDS011;8249;48.708;9.030;2022-08-01T00:34:56;2.63;;;2.43;;
16282;SDS011;8249;48.708;9.030;2022-08-01T00:37:23;3.17;;;2.70;;
16282;SDS011;8249;48.708;9.030;2022-08-01T00:39:50;3.30;;;2.37;;
16282;SDS011;8249;48.708;9.030;2022-08-01T00:42:19;2.83;;;2.63;;
16282;SDS011;8249;48.708;9.030;2022-08-01T00:44:46;3.00;;;2.80;;
16282;SDS011;8249;48.708;9.030;2022-08-01T00:47:13;2.60;;;2.40;;
16282;SDS011;8249;48.708;9.030;2022-08-01T00:49:40;2.80;;;2.70;;
16282;SDS011;8249;48.708;9.030;2022-08-01T00:52:07;2.73;;;2.63;;
16282;SDS011;8249;48.708;9.030;2022-08-01T00:54:34;2.67;;;2.57;;
16282;SDS011;8249;48.708;9.030;2022-08-01T00:57:02;3.33;;;2.80;;
16282;SDS011;8249;48.708;9.030;2022-08-01T00:59:31;2.97;;;2.63;;
16282;SDS011;8249;48.708;9.030;2022-08-01T01:01:59;3.57;;;3.10;;
16282;SDS011;8249;48.708;9.030;2022-08-01T01:04:26;2.77;;;2.60;;
16282;SDS011;8249;48.708;9.030;2022-08-01T01:06:56;2.60;;;2.40;;
16282;SDS011;8249;48.708;9.030;2022-08-01T01:09:33;2.77;;;2.57;;
16282;SDS011;8249;48.708;9.030;2022-08-01T01:12:12;3.20;;;3.00;;
16282;SDS011;8249;48.708;9.030;2022-08-01T01:14:46;2.90;;;2.70;;
16282;SDS011;8249;48.708;9.030;2022-08-01T01:17:21;3.07;;;2.87;;
16282;SDS011;8249;48.708;9.030;2022-08-01T01:19:59;3.10;;;2.80;;
16282;SDS011;8249;48.708;9.030;2022-08-01T01:22:36;3.23;;;2.93;;
16282;SDS011;8249;48.708;9.030;2022-08-01T01:25:30;3.17;;;2.97;;
16282;SDS011;8249;48.708;9.030;2022-08-01T01:28:08;3.20;;;2.90;;
16282;SDS011;8249;48.708;9.030;2022-08-01T01:30:43;4.57;;;2.83;;
16282;SDS011;8249;48.708;9.030;2022-08-01T01:33:13;3.10;;;2.90;;
16282;SDS011;8249;48.708;9.030;2022-08-01T01:35:42;3.03;;;2.83;;
16282;SDS011;8249;48.708;9.030;2022-08-01T01:38:14;4.67;;;3.17;;
16282;SDS011;8249;48.708;9.030;2022-08-01T01:40:46;3.40;;;3.10;;
16282;SDS011;8249;48.708;9.030;2022-08-01T01:43:14;3.50;;;3.20;;
16282;SDS011;8249;48.708;9.030;2022-08-01T01:45:44;3.27;;;3.03;;
16282;SDS011;8249;48.708;9.030;2022-08-01T01:48:13;3.20;;;3.00;;
16282;SDS011;8249;48.708;9.030;2022-08-01T01:50:45;2.97;;;2.80;;
16282;SDS011;8249;48.708;9.030;2022-08-01T01:53:13;3.30;;;3.10;;
16282;SDS011;8249;48.708;9.030;2022-08-01T01:55:43;3.67;;;3.37;;
16282;SDS011;8249;48.708;9.030;2022-08-01T01:58:11;3.40;;;3.17;;
16282;SDS011;8249;48.708;9.030;2022-08-01T02:00:40;3.47;;;3.23;;
16282;SDS011;8249;48.708;9.030;2022-08-01T02:03:10;3.33;;;3.03;;
16282;SDS011;8249;48.708;9.030;2022-08-01T02:05:40;2.77;;;2.57;;
16282;SDS011;8249;48.708;9.030;2022-08-01T02:08:09;3.03;;;2.83;;
16282;SDS011;8249;48.708;9.030;2022-08-01T02:10:38;3.70;;;3.40;;
16282;SDS011;8249;48.708;9.030;2022-08-01T02:13:06;3.37;;;3.10;;
16282;SDS011;8249;48.708;9.030;2022-08-01T02:15:34;3.43;;;3.10;;
16282;SDS011;8249;48.708;9.030;2022-08-01T02:18:03;3.60;;;3.30;;
16282;SDS011;8249;48.708;9.030;2022-08-01T02:20:35;3.57;;;3.23;;
16282;SDS011;8249;48.708;9.030;2022-08-01T02:23:05;3.23;;;3.03;;
16282;SDS011;8249;48.708;9.030;2022-08-01T02:25:36;3.43;;;3.23;;
16282;SDS011;8249;48.708;9.030;2022-08-01T02:28:09;4.07;;;3.60;;
16282;SDS011;8249;48.708;9.030;2022-08-01T02:30:41;4.13;;;3.00;;
16282;SDS011;8249;48.708;9.030;2022-08-01T02:33:15;3.27;;;3.00;;
16282;SDS011;8249;48.708;9.030;2022-08-01T02:35:46;3.67;;;3.17;;
16282;SDS011;8249;48.708;9.030;2022-08-01T02:38:16;4.77;;;3.50;;
16282;SDS011;8249;48.708;9.030;2022-08-01T02:40:46;3.97;;;3.63;;
16282;SDS011;8249;48.708;9.030;2022-08-01T02:43:17;3.30;;;3.10;;
16282;SDS011;8249;48.708;9.030;2022-08-01T02:45:49;3.90;;;3.57;;
16282;SDS011;8249;48.708;9.030;2022-08-01T02:48:20;3.80;;;3.40;;
16282;SDS011;8249;48.708;9.030;2022-08-01T02:50:53;4.47;;;3.53;;
16282;SDS011;8249;48.708;9.030;2022-08-01T02:53:22;3.60;;;3.30;;
16282;SDS011;8249;48.708;9.030;2022-08-01T02:55:51;3.53;;;3.23;;
16282;SDS011;8249;48.708;9.030;2022-08-01T02:58:20;4.07;;;3.67;;
16282;SDS011;8249;48.708;9.030;2022-08-01T03:00:49;3.40;;;3.10;;
16282;SDS011;8249;48.708;9.030;2022-08-01T03:03:17;5.87;;;3.40;;
16282;SDS011;8249;48.708;9.030;2022-08-01T03:05:44;4.17;;;3.73;;
16282;SDS011;8249;48.708;9.030;2022-08-01T03:08:15;3.70;;;3.40;;
16282;SDS011;8249;48.708;9.030;2022-08-01T03:10:44;3.73;;;3.40;;
16282;SDS011;8249;48.708;9.030;2022-08-01T03:13:13;5.60;;;3.70;;
16282;SDS011;8249;48.708;9.030;2022-08-01T03:15:42;5.23;;;3.80;;
16282;SDS011;8249;48.708;9.030;2022-08-01T03:18:10;4.07;;;3.40;;
16282;SDS011;8249;48.708;9.030;2022-08-01T03:20:38;4.73;;;4.17;;
16282;SDS011;8249;48.708;9.030;2022-08-01T03:23:06;3.80;;;3.13;;
16282;SDS011;8249;48.708;9.030;2022-08-01T03:25:38;3.70;;;3.47;;
16282;SDS011;8249;48.708;9.030;2022-08-01T03:28:08;3.80;;;3.50;;
16282;SDS011;8249;48.708;9.030;2022-08-01T03:30:38;4.03;;;3.73;;
16282;SDS011;8249;48.708;9.030;2022-08-01T03:33:06;3.50;;;3.30;;
16282;SDS011;8249;48.708;9.030;2022-08-01T03:35:34;3.70;;;3.40;;
16282;SDS011;8249;48.708;9.030;2022-08-01T03:38:05;4.10;;;3.80;;
16282;SDS011;8249;48.708;9.030;2022-08-01T03:40:36;4.50;;;3.73;;
16282;SDS011;8249;48.708;9.030;2022-08-01T03:43:08;4.13;;;3.83;;
16282;SDS011;8249;48.708;9.030;2022-08-01T03:45:41;4.30;;;3.90;;
16282;SDS011;8249;48.708;9.030;2022-08-01T03:48:13;4.93;;;4.07;;
16282;SDS011;8249;48.708;9.030;2022-08-01T03:50:42;3.77;;;3.57;;
16282;SDS011;8249;48.708;9.030;2022-08-01T03:53:13;3.67;;;3.43;;
16282;SDS011;8249;48.708;9.030;2022-08-01T03:55:42;4.10;;;3.70;;
16282;SDS011;8249;48.708;9.030;2022-08-01T03:58:10;4.70;;;4.03;;
16282;SDS011;8249;48.708;9.030;2022-08-01T04:00:39;4.27;;;3.70;;
16282;SDS011;8249;48.708;9.030;2022-08-01T04:03:06;3.90;;;3.60;;
16282;SDS011;8249;48.708;9.030;2022-08-01T04:05:34;3.63;;;3.33;;
16282;SDS011;8249;48.708;9.030;2022-08-01T04:08:01;3.70;;;3.50;;
16282;SDS011;8249;48.708;9.030;2022-08-01T04:10:29;3.73;;;3.43;;
16282;SDS011;8249;48.708;9.030;2022-08-01T04:12:57;3.70;;;3.40;;
16282;SDS011;8249;48.708;9.030;2022-08-01T04:15:24;3.47;;;3.27;;
16282;SDS011;8249;48.708;9.030;2022-08-01T04:17:51;4.17;;;3.40;;
16282;SDS011;8249;48.708;9.030;2022-08-01T04:20:19;4.03;;;3.67;;
16282;SDS011;8249;48.708;9.030;2022-08-01T04:22:46;3.77;;;3.57;;
16282;SDS011;8249;48.708;9.030;2022-08-01T04:25:14;3.90;;;3.60;;
16282;SDS011;8249;48.708;9.030;2022-08-01T04:27:46;4.63;;;3.60;;
16282;SDS011;8249;48.708;9.030;2022-08-01T04:30:20;3.90;;;3.70;;
16282;SDS011;8249;48.708;9.030;2022-08-01T04:32:50;3.93;;;3.53;;
16282;SDS011;8249;48.708;9.030;2022-08-01T04:35:19;3.90;;;3.60;;
16282;SDS011;8249;48.708;9.030;2022-08-01T04:37:47;4.60;;;3.60;;
16282;SDS011;8249;48.708;9.030;2022-08-01T04:40:16;4.53;;;3.87;;
16282;SDS011;8249;48.708;9.030;2022-08-01T04:42:43;4.83;;;3.57;;
16282;SDS011;8249;48.708;9.030;2022-08-01T04:45:14;4.10;;;3.73;;
16282;SDS011;8249;48.708;9.030;2022-08-01T04:47:42;4.30;;;3.67;;
16282;SDS011;8249;48.708;9.030;2022-08-01T04:50:11;3.80;;;3.50;;
16282;SDS011;8249;48.708;9.030;2022-08-01T04:52:38;3.90;;;3.63;;
16282;SDS011;8249;48.708;9.030;2022-08-01T04:55:07;4.20;;;3.90;;
16282;SDS011;8249;48.708;9.030;2022-08-01T04:57:35;4.40;;;4.00;;
16282;SDS011;8249;48.708;9.030;2022-08-01T05:00:04;4.00;;;3.70;;
16282;SDS011;8249;48.708;9.030;2022-08-01T05:02:32;4.17;;;3.83;;
16282;SDS011;8249;48.708;9.030;2022-08-01T05:05:00;5.67;;;3.20;;
16282;SDS011;8249;48.708;9.030;2022-08-01T05:07:27;3.83;;;3.50;;
16282;SDS011;8249;48.708;9.030;2022-08-01T05:09:54;3.70;;;3.40;;
16282;SDS011;8249;48.708;9.030;2022-08-01T05:12:21;4.07;;;3.67;;
16282;SDS011;8249;48.708;9.030;2022-08-01T05:14:48;4.30;;;3.90;;
16282;SDS011;8249;48.708;9.030;2022-08-01T05:17:16;5.57;;;3.77;;
16282;SDS011;8249;48.708;9.030;2022-08-01T05:19:43;4.97;;;3.47;;
16282;SDS011;8249;48.708;9.030;2022-08-01T05:22:11;3.53;;;3.30;;
16282;SDS011;8249;48.708;9.030;2022-08-01T05:24:38;5.70;;;3.57;;
16282;SDS011;8249;48.708;9.030;2022-08-01T05:27:07;3.73;;;3.20;;
16282;SDS011;8249;48.708;9.030;2022-08-01T05:29:34;4.20;;;3.70;;
16282;SDS011;8249;48.708;9.030;2022-08-01T05:32:01;3.40;;;3.13;;
16282;SDS011;8249;48.708;9.030;2022-08-01T05:34:28;4.73;;;3.30;;
16282;SDS011;8249;48.708;9.030;2022-08-01T05:36:55;3.43;;;3.17;;
16282;SDS011;8249;48.708;9.030;2022-08-01T05:39:24;4.03;;;3.40;;
16282;SDS011;8249;48.708;9.030;2022-08-01T05:41:50;3.50;;;3.30;;
16282;SDS011;8249;48.708;9.030;2022-08-01T05:44:17;3.03;;;2.83;;
16282;SDS011;8249;48.708;9.030;2022-08-01T05:46:44;3.47;;;3.17;;
16282;SDS011;8249;48.708;9.030;2022-08-01T05:49:12;3.40;;;3.20;;
16282;SDS011;8249;48.708;9.030;2022-08-01T05:51:38;4.10;;;3.30;;
16282;SDS011;8249;48.708;9.030;2022-08-01T05:54:05;3.30;;;3.00;;
16282;SDS011;8249;48.708;9.030;2022-08-01T05:56:34;4.13;;;3.40;;
16282;SDS011;8249;48.708;9.030;2022-08-01T05:59:01;4.63;;;3.50;;
16282;SDS011;8249;48.708;9.030;2022-08-01T06:01:28;6.60;;;3.83;;
16282;SDS011;8249;48.708;9.030;2022-08-01T06:03:55;3.97;;;3.40;;
16282;SDS011;8249;48.708;9.030;2022-08-01T06:06:22;3.77;;;3.47;;
16282;SDS011;8249;48.708;9.030;2022-08-01T06:08:49;5.50;;;3.40;;
16282;SDS011;8249;48.708;9.030;2022-08-01T06:11:17;8.00;;;3.53;;
16282;SDS011;8249;48.708;9.030;2022-08-01T06:13:45;3.70;;;3.30;;
16282;SDS011;8249;48.708;9.030;2022-08-01T06:16:12;3.73;;;3.30;;
16282;SDS011;8249;48.708;9.030;2022-08-01T06:18:39;4.57;;;3.43;;
16282;SDS011;8249;48.708;9.030;2022-08-01T06:21:06;3.03;;;2.63;;
16282;SDS011;8249;48.708;9.030;2022-08-01T06:23:33;2.67;;;2.47;;
16282;SDS011;8249;48.708;9.030;2022-08-01T06:26:00;2.70;;;2.50;;
16282;SDS011;8249;48.708;9.030;2022-08-01T06:28:27;2.97;;;2.47;;
16282;SDS011;8249;48.708;9.030;2022-08-01T06:30:56;7.72;;;2.95;;
16282;SDS011;8249;48.708;9.030;2022-08-01T06:33:24;3.60;;;2.42;;
16282;SDS011;8249;48.708;9.030;2022-08-01T06:35:51;2.33;;;2.13;;
16282;SDS011;8249;48.708;9.030;2022-08-01T06:38:18;3.00;;;2.03;;
16282;SDS011;8249;48.708;9.030;2022-08-01T06:40:45;2.20;;;2.10;;
16282;SDS011;8249;48.708;9.030;2022-08-01T06:43:12;2.28;;;2.10;;
16282;SDS011;8249;48.708;9.030;2022-08-01T06:45:40;2.40;;;2.10;;
16282;SDS011;8249;48.708;9.030;2022-08-01T06:48:08;2.17;;;2.08;;
16282;SDS011;8249;48.708;9.030;2022-08-01T06:50:35;2.10;;;2.00;;
16282;SDS011;8249;48.708;9.030;2022-08-01T06:53:03;3.80;;;2.40;;
16282;SDS011;8249;48.708;9.030;2022-08-01T06:55:30;2.40;;;2.20;;
16282;SDS011;8249;48.708;9.030;2022-08-01T06:57:57;3.15;;;2.25;;
16282;SDS011;8249;48.708;9.030;2022-08-01T07:00:25;2.00;;;1.90;;
16282;SDS011;8249;48.708;9.030;2022-08-01T07:02:52;5.38;;;2.30;;
16282;SDS011;8249;48.708;9.030;2022-08-01T07:05:22;3.22;;;2.30;;
16282;SDS011;8249;48.708;9.030;2022-08-01T07:07:49;2.08;;;1.98;;
16282;SDS011;8249;48.708;9.030;2022-08-01T07:10:16;2.30;;;2.08;;
16282;SDS011;8249;48.708;9.030;2022-08-01T07:12:44;2.33;;;2.15;;
16282;SDS011;8249;48.708;9.030;2022-08-01T07:15:11;2.03;;;1.90;;
16282;SDS011;8249;48.708;9.030;2022-08-01T07:17:38;1.98;;;1.88;;
16282;SDS011;8249;48.708;9.030;2022-08-01T07:20:06;2.13;;;2.00;;
16282;SDS011;8249;48.708;9.030;2022-08-01T07:22:36;2.08;;;1.83;;
16282;SDS011;8249;48.708;9.030;2022-08-01T07:25:03;2.17;;;1.95;;
16282;SDS011;8249;48.708;9.030;2022-08-01T07:27:31;2.00;;;1.80;;
16282;SDS011;8249;48.708;9.030;2022-08-01T07:29:59;2.13;;;1.70;;
16282;SDS011;8249;48.708;9.030;2022-08-01T07:32:26;2.70;;;2.00;;
16282;SDS011;8249;48.708;9.030;2022-08-01T07:34:54;2.35;;;2.25;;
16282;SDS011;8249;48.708;9.030;2022-08-01T07:37:21;2.90;;;2.00;;
16282;SDS011;8249;48.708;9.030;2022-08-01T07:39:50;5.32;;;2.30;;
16282;SDS011;8249;48.708;9.030;2022-08-01T07:42:17;2.50;;;2.30;;
16282;SDS011;8249;48.708;9.030;2022-08-01T07:44:44;2.20;;;2.10;;
16282;SDS011;8249;48.708;9.030;2022-08-01T07:47:11;2.20;;;2.10;;
16282;SDS011;8249;48.708;9.030;2022-08-01T07:49:38;2.42;;;2.13;;
16282;SDS011;8249;48.708;9.030;2022-08-01T07:52:05;3.03;;;2.30;;
16282;SDS011;8249;48.708;9.030;2022-08-01T07:54:32;2.53;;;2.30;;
16282;SDS011;8249;48.708;9.030;2022-08-01T07:57:01;2.53;;;2.33;;
16282;SDS011;8249;48.708;9.030;2022-08-01T07:59:28;2.30;;;2.10;;
16282;SDS011;8249;48.708;9.030;2022-08-01T08:01:55;2.08;;;1.98;;
16282;SDS011;8249;48.708;9.030;2022-08-01T08:04:22;2.50;;;2.30;;
16282;SDS011;8249;48.708;9.030;2022-08-01T08:06:49;3.35;;;2.45;;
16282;SDS011;8249;48.708;9.030;2022-08-01T08:09:18;5.65;;;2.40;;
16282;SDS011;8249;48.708;9.030;2022-08-01T08:11:45;4.38;;;2.60;;
16282;SDS011;8249;48.708;9.030;2022-08-01T08:14:14;2.45;;;2.35;;
16282;SDS011;8249;48.708;9.030;2022-08-01T08:16:41;2.70;;;2.50;;
16282;SDS011;8249;48.708;9.030;2022-08-01T08:19:08;2.72;;;2.53;;
16282;SDS011;8249;48.708;9.030;2022-08-01T08:21:35;2.72;;;2.50;;
16282;SDS011;8249;48.708;9.030;2022-08-01T08:24:03;2.88;;;2.60;;
16282;SDS011;8249;48.708;9.030;2022-08-01T08:26:49;2.58;;;2.45;;
16282;SDS011;8249;48.708;9.030;2022-08-01T08:29:19;5.40;;;2.75;;
16282;SDS011;8249;48.708;9.030;2022-08-01T08:31:47;2.75;;;2.55;;
16282;SDS011;8249;48.708;9.030;2022-08-01T08:34:14;2.60;;;2.40;;
16282;SDS011;8249;48.708;9.030;2022-08-01T08:36:41;2.70;;;2.60;;
16282;SDS011;8249;48.708;9.030;2022-08-01T08:39:08;2.85;;;2.67;;
16282;SDS011;8249;48.708;9.030;2022-08-01T08:41:35;2.70;;;2.50;;
16282;SDS011;8249;48.708;9.030;2022-08-01T08:44:02;3.05;;;2.85;;
16282;SDS011;8249;48.708;9.030;2022-08-01T08:46:32;2.67;;;2.47;;
16282;SDS011;8249;48.708;9.030;2022-08-01T08:49:00;3.15;;;2.80;;
16282;SDS011;8249;48.708;9.030;2022-08-01T08:51:29;2.55;;;2.45;;
16282;SDS011;8249;48.708;9.030;2022-08-01T08:53:57;2.88;;;2.72;;
16282;SDS011;8249;48.708;9.030;2022-08-01T08:56:24;2.90;;;2.70;;
16282;SDS011;8249;48.708;9.030;2022-08-01T08:58:55;3.05;;;2.80;;
16282;SDS011;8249;48.708;9.030;2022-08-01T09:01:22;3.67;;;3.40;;
16282;SDS011;8249;48.708;9.030;2022-08-01T09:03:51;3.58;;;3.30;;
16282;SDS011;8249;48.708;9.030;2022-08-01T09:06:19;4.10;;;3.33;;
16282;SDS011;8249;48.708;9.030;2022-08-01T09:08:46;4.43;;;3.30;;
16282;SDS011;8249;48.708;9.030;2022-08-01T09:11:13;3.38;;;3.10;;
16282;SDS011;8249;48.708;9.030;2022-08-01T09:13:40;3.70;;;3.40;;
16282;SDS011;8249;48.708;9.030;2022-08-01T09:16:07;2.90;;;2.70;;
16282;SDS011;8249;48.708;9.030;2022-08-01T09:18:36;3.50;;;3.08;;
16282;SDS011;8249;48.708;9.030;2022-08-01T09:23:52;3.65;;;3.30;;
16282;SDS011;8249;48.708;9.030;2022-08-01T09:26:28;3.80;;;3.10;;
16282;SDS011;8249;48.708;9.030;2022-08-01T09:28:57;3.78;;;3.47;;
16282;SDS011;8249;48.708;9.030;2022-08-01T09:31:26;4.00;;;3.60;;
16282;SDS011;8249;48.708;9.030;2022-08-01T09:33:55;3.63;;;3.28;;
16282;SDS011;8249;48.708;9.030;2022-08-01T09:36:25;3.67;;;3.38;;
16282;SDS011;8249;48.708;9.030;2022-08-01T09:38:53;3.60;;;3.40;;
16282;SDS011;8249;48.708;9.030;2022-08-01T09:41:28;5.05;;;3.67;;
16282;SDS011;8249;48.708;9.030;2022-08-01T09:43:56;3.65;;;3.35;;
16282;SDS011;8249;48.708;9.030;2022-08-01T09:46:24;4.80;;;4.50;;
16282;SDS011;8249;48.708;9.030;2022-08-01T09:48:55;5.03;;;4.55;;
16282;SDS011;8249;48.708;9.030;2022-08-01T09:51:28;4.65;;;4.32;;
16282;SDS011;8249;48.708;9.030;2022-08-01T09:53:57;4.97;;;4.68;;
16282;SDS011;8249;48.708;9.030;2022-08-01T09:56:24;5.18;;;4.50;;
16282;SDS011;8249;48.708;9.030;2022-08-01T09:58:54;4.05;;;3.80;;
16282;SDS011;8249;48.708;9.030;2022-08-01T10:01:23;4.13;;;3.83;;
16282;SDS011;8249;48.708;9.030;2022-08-01T10:04:06;4.95;;;4.10;;
16282;SDS011;8249;48.708;9.030;2022-08-01T10:06:36;3.20;;;3.00;;
16282;SDS011;8249;48.708;9.030;2022-08-01T10:09:04;3.67;;;3.42;;
16282;SDS011;8249;48.708;9.030;2022-08-01T10:11:31;3.90;;;3.60;;
16282;SDS011;8249;48.708;9.030;2022-08-01T10:13:59;3.67;;;3.40;;
16282;SDS011;8249;48.708;9.030;2022-08-01T10:16:28;3.38;;;3.20;;
16282;SDS011;8249;48.708;9.030;2022-08-01T10:18:56;3.80;;;3.60;;
16282;SDS011;8249;48.708;9.030;2022-08-01T10:21:23;3.75;;;3.45;;
16282;SDS011;8249;48.708;9.030;2022-08-01T10:23:55;4.53;;;3.03;;
16282;SDS011;8249;48.708;9.030;2022-08-01T10:26:24;3.50;;;3.20;;
16282;SDS011;8249;48.708;9.030;2022-08-01T10:28:52;3.08;;;2.90;;
16282;SDS011;8249;48.708;9.030;2022-08-01T10:31:21;3.30;;;3.05;;
16282;SDS011;8249;48.708;9.030;2022-08-01T10:33:49;2.95;;;2.75;;
16282;SDS011;8249;48.708;9.030;2022-08-01T10:36:17;2.90;;;2.80;;
16282;SDS011;8249;48.708;9.030;2022-08-01T10:38:46;2.80;;;2.60;;
16282;SDS011;8249;48.708;9.030;2022-08-01T10:41:15;2.60;;;2.42;;
16282;SDS011;8249;48.708;9.030;2022-08-01T10:43:44;3.25;;;2.80;;
16282;SDS011;8249;48.708;9.030;2022-08-01T10:46:11;2.42;;;2.33;;
16282;SDS011;8249;48.708;9.030;2022-08-01T10:48:40;2.88;;;2.67;;
16282;SDS011;8249;48.708;9.030;2022-08-01T10:51:13;2.80;;;2.60;;
16282;SDS011;8249;48.708;9.030;2022-08-01T10:53:45;3.72;;;2.65;;
16282;SDS011;8249;48.708;9.030;2022-08-01T10:56:15;2.35;;;2.25;;
16282;SDS011;8249;48.708;9.030;2022-08-01T10:58:42;2.88;;;2.67;;
16282;SDS011;8249;48.708;9.030;2022-08-01T11:01:19;2.63;;;2.30;;
16282;SDS011;8249;48.708;9.030;2022-08-01T11:03:59;2.50;;;2.40;;
16282;SDS011;8249;48.708;9.030;2022-08-01T11:06:41;2.67;;;2.08;;
16282;SDS011;8249;48.708;9.030;2022-08-01T11:09:27;3.47;;;2.67;;
16282;SDS011;8249;48.708;9.030;2022-08-01T11:11:58;2.50;;;2.40;;
16282;SDS011;8249;48.708;9.030;2022-08-01T11:14:34;2.50;;;2.30;;
16282;SDS011;8249;48.708;9.030;2022-08-01T11:17:32;2.72;;;2.50;;
16282;SDS011;8249;48.708;9.030;2022-08-01T11:20:04;2.60;;;2.50;;
16282;SDS011;8249;48.708;9.030;2022-08-01T11:22:33;2.65;;;2.45;;
16282;SDS011;8249;48.708;9.030;2022-08-01T11:31:40;2.85;;;2.65;;
16282;SDS011;8249;48.708;9.030;2022-08-01T11:34:07;2.65;;;2.50;;
16282;SDS011;8249;48.708;9.030;2022-08-01T11:36:34;3.78;;;2.30;;
16282;SDS011;8249;48.708;9.030;2022-08-01T11:39:11;2.85;;;2.65;;
16282;SDS011;8249;48.708;9.030;2022-08-01T11:41:42;2.70;;;2.50;;
16282;SDS011;8249;48.708;9.030;2022-08-01T11:44:11;3.03;;;2.72;;
16282;SDS011;8249;48.708;9.030;2022-08-01T11:46:45;4.40;;;2.30;;
16282;SDS011;8249;48.708;9.030;2022-08-01T11:49:23;2.65;;;2.40;;
16282;SDS011;8249;48.708;9.030;2022-08-01T11:52:26;2.70;;;2.50;;
16282;SDS011;8249;48.708;9.030;2022-08-01T11:54:55;2.58;;;2.40;;
16282;SDS011;8249;48.708;9.030;2022-08-01T11:57:23;2.83;;;2.63;;
16282;SDS011;8249;48.708;9.030;2022-08-01T11:59:54;2.80;;;2.60;;
16282;SDS011;8249;48.708;9.030;2022-08-01T12:02:23;2.63;;;2.42;;
16282;SDS011;8249;48.708;9.030;2022-08-01T12:04:53;2.65;;;2.40;;
16282;SDS011;8249;48.708;9.030;2022-08-01T12:07:21;2.38;;;2.28;;
16282;SDS011;8249;48.708;9.030;2022-08-01T12:09:56;3.63;;;2.90;;
16282;SDS011;8249;48.708;9.030;2022-08-01T12:12:26;2.92;;;2.45;;
16282;SDS011;8249;48.708;9.030;2022-08-01T12:14:56;2.80;;;2.63;;
16282;SDS011;8249;48.708;9.030;2022-08-01T12:17:28;2.83;;;2.55;;
16282;SDS011;8249;48.708;9.030;2022-08-01T12:19:59;2.45;;;2.30;;
16282;SDS011;8249;48.708;9.030;2022-08-01T12:22:26;2.63;;;2.40;;
16282;SDS011;8249;48.708;9.030;2022-08-01T12:24:53;2.20;;;2.10;;
16282;SDS011;8249;48.708;9.030;2022-08-01T12:27:24;2.40;;;2.30;;
16282;SDS011;8249;48.708;9.030;2022-08-01T12:29:52;4.20;;;2.28;;
16282;SDS011;8249;48.708;9.030;2022-08-01T12:32:22;2.08;;;1.98;;
16282;SDS011;8249;48.708;9.030;2022-08-01T12:34:51;2.08;;;1.88;;
16282;SDS011;8249;48.708;9.030;2022-08-01T12:37:19;2.53;;;2.28;;
16282;SDS011;8249;48.708;9.030;2022-08-01T12:39:46;3.53;;;2.40;;
16282;SDS011;8249;48.708;9.030;2022-08-01T12:42:13;3.25;;;2.20;;
16282;SDS011;8249;48.708;9.030;2022-08-01T12:44:42;2.58;;;2.10;;
16282;SDS011;8249;48.708;9.030;2022-08-01T12:47:11;3.00;;;2.65;;
16282;SDS011;8249;48.708;9.030;2022-08-01T12:49:42;2.22;;;2.10;;
16282;SDS011;8249;48.708;9.030;2022-08-01T12:52:10;2.72;;;2.40;;
16282;SDS011;8249;48.708;9.030;2022-08-01T12:57:27;2.20;;;2.00;;
16282;SDS011;8249;48.708;9.030;2022-08-01T13:00:04;1.80;;;1.70;;
16282;SDS011;8249;48.708;9.030;2022-08-01T13:02:32;1.80;;;1.70;;
16282;SDS011;8249;48.708;9.030;2022-08-01T13:05:01;2.20;;;2.10;;
16282;SDS011;8249;48.708;9.030;2022-08-01T13:07:36;3.17;;;2.50;;
16282;SDS011;8249;48.708;9.030;2022-08-01T13:10:05;2.67;;;2.40;;
16282;SDS011;8249;48.708;9.030;2022-08-01T13:12:33;2.55;;;2.30;;
16282;SDS011;8249;48.708;9.030;2022-08-01T13:15:15;2.50;;;2.08;;
16282;SDS011;8249;48.708;9.030;2022-08-01T13:17:47;2.10;;;2.00;;
16282;SDS011;8249;48.708;9.030;2022-08-01T13:20:28;2.55;;;2.35;;
16282;SDS011;8249;48.708;9.030;2022-08-01T13:23:10;2.20;;;2.00;;
16282;SDS011;8249;48.708;9.030;2022-08-01T13:25:48;3.47;;;2.20;;
16282;SDS011;8249;48.708;9.030;2022-08-01T13:28:17;2.75;;;2.30;;
16282;SDS011;8249;48.708;9.030;2022-08-01T13:30:55;4.90;;;2.25;;
16282;SDS011;8249;48.708;9.030;2022-08-01T13:33:25;2.45;;;2.25;;
16282;SDS011;8249;48.708;9.030;2022-08-01T13:35:55;5.55;;;2.78;;
16282;SDS011;8249;48.708;9.030;2022-08-01T13:38:22;3.70;;;2.13;;
16282;SDS011;8249;48.708;9.030;2022-08-01T13:41:03;2.10;;;2.00;;
16282;SDS011;8249;48.708;9.030;2022-08-01T13:43:31;2.78;;;2.13;;
16282;SDS011;8249;48.708;9.030;2022-08-01T13:45:58;2.40;;;2.20;;
16282;SDS011;8249;48.708;9.030;2022-08-01T13:48:25;2.47;;;2.35;;
16282;SDS011;8249;48.708;9.030;2022-08-01T13:50:52;3.13;;;2.20;;
16282;SDS011;8249;48.708;9.030;2022-08-01T13:53:20;2.22;;;2.13;;
16282;SDS011;8249;48.708;9.030;2022-08-01T13:55:47;2.55;;;2.15;;
16282;SDS011;8249;48.708;9.030;2022-08-01T13:58:14;3.03;;;2.25;;
16282;SDS011;8249;48.708;9.030;2022-08-01T14:00:41;3.10;;;2.55;;
16282;SDS011;8249;48.708;9.030;2022-08-01T14:03:08;2.90;;;2.60;;
16282;SDS011;8249;48.708;9.030;2022-08-01T14:05:36;2.67;;;2.47;;
16282;SDS011;8249;48.708;9.030;2022-08-01T14:08:03;2.70;;;2.10;;
16282;SDS011;8249;48.708;9.030;2022-08-01T14:10:32;3.25;;;2.60;;
16282;SDS011;8249;48.708;9.030;2022-08-01T14:12:58;2.40;;;2.30;;
16282;SDS011;8249;48.708;9.030;2022-08-01T14:15:25;3.08;;;2.00;;
16282;SDS011;8249;48.708;9.030;2022-08-01T14:17:52;3.05;;;2.22;;
16282;SDS011;8249;48.708;9.030;2022-08-01T14:20:19;2.83;;;2.60;;
16282;SDS011;8249;48.708;9.030;2022-08-01T14:22:46;3.92;;;2.50;;
16282;SDS011;8249;48.708;9.030;2022-08-01T14:25:14;2.38;;;2.17;;
16282;SDS011;8249;48.708;9.030;2022-08-01T14:27:44;2.40;;;2.20;;
16282;SDS011;8249;48.708;9.030;2022-08-01T14:30:11;2.28;;;2.08;;
16282;SDS011;8249;48.708;9.030;2022-08-01T14:32:39;2.17;;;2.08;;
16282;SDS011;8249;48.708;9.030;2022-08-01T14:35:06;2.15;;;2.00;;
16282;SDS011;8249;48.708;9.030;2022-08-01T14:37:34;3.20;;;2.25;;
16282;SDS011;8249;48.708;9.030;2022-08-01T14:40:01;2.38;;;2.28;;
16282;SDS011;8249;48.708;9.030;2022-08-01T14:42:34;1.92;;;1.83;;
16282;SDS011;8249;48.708;9.030;2022-08-01T14:45:04;3.30;;;2.13;;
16282;SDS011;8249;48.708;9.030;2022-08-01T14:47:34;3.33;;;1.90;;
16282;SDS011;8249;48.708;9.030;2022-08-01T14:50:02;2.25;;;2.10;;
16282;SDS011;8249;48.708;9.030;2022-08-01T14:52:31;3.55;;;2.10;;
16282;SDS011;8249;48.708;9.030;2022-08-01T14:54:58;2.67;;;2.03;;
16282;SDS011;8249;48.708;9.030;2022-08-01T14:57:25;1.92;;;1.83;;
16282;SDS011;8249;48.708;9.030;2022-08-01T14:59:52;2.10;;;2.00;;
16282;SDS011;8249;48.708;9.030;2022-08-01T15:02:21;2.42;;;2.20;;
16282;SDS011;8249;48.708;9.030;2022-08-01T15:04:49;3.45;;;2.28;;
16282;SDS011;8249;48.708;9.030;2022-08-01T15:07:16;2.58;;;2.47;;
16282;SDS011;8249;48.708;9.030;2022-08-01T15:09:44;2.17;;;2.08;;
16282;SDS011;8249;48.708;9.030;2022-08-01T15:12:11;2.22;;;2.13;;
16282;SDS011;8249;48.708;9.030;2022-08-01T15:14:38;2.20;;;2.10;;
16282;SDS011;8249;48.708;9.030;2022-08-01T15:17:15;4.20;;;2.50;;
16282;SDS011;8249;48.708;9.030;2022-08-01T15:19:44;5.25;;;2.28;;
16282;SDS011;8249;48.708;9.030;2022-08-01T15:22:11;2.47;;;2.10;;
16282;SDS011;8249;48.708;9.030;2022-08-01T15:24:38;2.70;;;2.30;;